Terminal Aerodrome Forecast
Issued by NWS Brownsville, TX

Current Version | Previous Version | Text Only | Print | Product List | Glossary Off
Versions: 1 2 3 4 5 6 7 8 9 10 11 12 13 14 15 16 17 18 19 20 21 22 23

000
FTUS44 KBRO 011407 AAD
TAFHRL
TAF AMD
KHRL 011407Z 0114/0212 14009KT 6SM BR BKN014 OVC021
     FM011800 15018G26KT P6SM BKN030
     FM020100 14010KT P6SM BKN015
     FM020900 15010KT P6SM OVC007=

USA.gov is the U.S. government's official web portal to all federal, state and local government web resources and services.